No78 Oyarikimaru — JL6479 — position and weather

sailwx.info

Track history (hours):
 
Tides and Currents Weather Stations Pressure Air Temp Water Temp Dewpoint Dewpoint Depression Visibility Wind Speed Wind Dir Waves Ship Positions

No78 Oyarikimaru

Last reported at 2018-Feb-21 02:35 UTC. Time now 2018-Feb-21 15:44 UTC.
Position N 34°53' E 139°48'.

Length 86 m; draft 3.4 m.

Type: Cargo ship. MMSI: 431500538.

Date/timePositionNaut miles runAvg speedWind from/ knotsBaromVisibWave heightAir tempDewpointWater temp
2018-Feb-21 02:35N 34°53' E 139°48'1011.4
2018-Feb-21 01:43N 35°02' E 139°43'212.0
2018-Feb-21 01:30N 35°04' E 139°44'612.2
2018-Feb-21 00:59N 35°10' E 139°46'612.5
2018-Feb-21 00:30N 35°17' E 139°45'612.7
2018-Feb-21 00:01N 35°22' E 139°42'5 9.8
2018-Feb-20 23:30N 35°25' E 139°48'5 9.6
2018-Feb-20 23:00N 35°22' E 139°53'0 0.0
2018-Feb-20 22:30N 35°22' E 139°53'0 0.0
2018-Feb-20 22:00N 35°22' E 139°53'0 0.0
2018-Feb-20 21:30N 35°22' E 139°53'0 0.0
2018-Feb-20 21:00N 35°22' E 139°53'0 0.0
2018-Feb-20 20:31N 35°22' E 139°53'0 0.0
2018-Feb-20 20:00N 35°22' E 139°53'0 0.0
2018-Feb-20 19:30N 35°22' E 139°53'0 0.0
2018-Feb-20 19:00N 35°22' E 139°53'0 0.0
2018-Feb-20 18:30N 35°22' E 139°53'0 0.0
2018-Feb-20 17:59N 35°22' E 139°53'0 0.0
2018-Feb-20 17:30N 35°22' E 139°53'0 0.0
2018-Feb-20 17:00N 35°22' E 139°53'0 0.0
2018-Feb-20 16:30N 35°22' E 139°53'0 0.0
2018-Feb-20 16:00N 35°22' E 139°53'0 0.0
2018-Feb-20 15:30N 35°22' E 139°53'0 0.0
2018-Feb-20 15:00N 35°22' E 139°53'0 0.0
2018-Feb-20 14:30N 35°22' E 139°53'0 0.0
2018-Feb-20 14:00N 35°22' E 139°53'0 0.0
2018-Feb-20 13:28N 35°22' E 139°53'0 0.0
2018-Feb-20 13:00N 35°22' E 139°53'0 0.0
2018-Feb-20 12:30N 35°22' E 139°53'0 0.0
2018-Feb-20 12:00N 35°22' E 139°53'0 0.0
2018-Feb-20 11:30N 35°22' E 139°53'0 0.0
2018-Feb-20 11:00N 35°22' E 139°53'0 0.0
2018-Feb-20 10:29N 35°22' E 139°53'0 0.0
2018-Feb-20 10:00N 35°22' E 139°53'0 0.0
2018-Feb-20 09:30N 35°22' E 139°53'0 0.0
2018-Feb-20 08:59N 35°22' E 139°53'0 0.0
2018-Feb-20 08:29N 35°22' E 139°53'0 0.0
2018-Feb-20 08:00N 35°22' E 139°53'0 0.0
2018-Feb-20 07:30N 35°22' E 139°53'0 0.0
2018-Feb-20 07:00N 35°22' E 139°53'0 0.0
2018-Feb-20 06:30N 35°22' E 139°53'2 3.9
2018-Feb-20 06:01N 35°23' E 139°51'2 3.3
2018-Feb-20 05:30N 35°24' E 139°49'0 0.0
2018-Feb-20 05:00N 35°24' E 139°49'0 0.0
2018-Feb-20 04:30N 35°24' E 139°49'0 0.9
2018-Feb-20 04:00N 35°24' E 139°49'2 3.4
2018-Feb-20 03:31N 35°24' E 139°47'5 9.5
2018-Feb-20 03:00N 35°19' E 139°44'5 9.6
2018-Feb-20 02:30N 35°15' E 139°47'510.0
2018-Feb-20 02:00N 35°10' E 139°47'510.7
2018-Feb-20 01:30N 35°05' E 139°45'10 9.6
2018-Feb-20 00:26N 34°55' E 139°46'10 8.7
2018-Feb-19 23:15N 34°54' E 139°59'3 9.6
2018-Feb-19 22:57N 34°56' E 140°02'410.1
2018-Feb-19 22:31N 34°58' E 140°06'39310.4
2018-Feb-18 08:38N 41°25' E 141°34'212.1
2018-Feb-18 08:28N 41°27' E 141°35'612.0
2018-Feb-18 08:00N 41°33' E 141°36'612.0
2018-Feb-18 07:30N 41°39' E 141°35'  
2018-Feb-13 12:20N 34°50' E 139°35'511.5
2018-Feb-13 11:54N 34°50' E 139°28'1111.5
2018-Feb-13 10:56N 34°46' E 139°16'713.5
2018-Feb-13 10:26N 34°41' E 139°10'512.0
2018-Feb-13 10:00N 34°39' E 139°04'611.5
2018-Feb-13 09:30N 34°36' E 138°58'612.2
2018-Feb-13 09:00N 34°34' E 138°51'711.1
2018-Feb-13 08:23N 34°33' E 138°43'411.0
2018-Feb-13 07:59N 34°32' E 138°37'610.9
2018-Feb-13 07:24N 34°30' E 138°30'176 9.8
2018-Feb-12 13:25N 33°49' E 135°03'511.4
2018-Feb-12 13:00N 33°53' E 134°60'511.1
2018-Feb-12 12:31N 33°57' E 134°56'611.1
2018-Feb-12 12:00N 34°02' E 134°51'511.1
2018-Feb-12 11:30N 34°06' E 134°47'1111.1
2018-Feb-12 10:34N 34°14' E 134°39'110.8
2018-Feb-12 10:30N 34°15' E 134°39'5 9.7
2018-Feb-12 10:00N 34°19' E 134°38'510.5
2018-Feb-12 09:31N 34°24' E 134°39'510.8
2018-Feb-12 09:00N 34°30' E 134°40'4 8.2
2018-Feb-12 08:30N 34°34' E 134°39'610.8
2018-Feb-12 07:56N 34°40' E 134°39'510.6
2018-Feb-12 07:30N 34°44' E 134°39'2 3.6
2018-Feb-12 07:00N 34°46' E 134°39'0 0.0
2018-Feb-12 06:30N 34°46' E 134°39'0 0.0
2018-Feb-12 05:59N 34°46' E 134°39'0 0.0
2018-Feb-12 05:28N 34°46' E 134°39'0 0.0
2018-Feb-12 05:00N 34°46' E 134°39'0 0.0
2018-Feb-12 04:30N 34°46' E 134°39'0 0.0
2018-Feb-12 04:00N 34°46' E 134°39'0 0.0
2018-Feb-12 03:27N 34°46' E 134°39'0 0.0
2018-Feb-12 03:00N 34°46' E 134°39'0 0.0
2018-Feb-12 02:28N 34°46' E 134°39'0 0.0
2018-Feb-12 02:00N 34°46' E 134°39'0 0.0
2018-Feb-12 01:28N 34°46' E 134°39'0 0.0
2018-Feb-12 00:57N 34°46' E 134°39'0 0.0
2018-Feb-12 00:26N 34°46' E 134°39'0 0.0
2018-Feb-12 00:00N 34°46' E 134°39'0 0.0
2018-Feb-11 23:30N 34°46' E 134°39'0 0.1
2018-Feb-11 22:58N 34°46' E 134°39'1 1.3
2018-Feb-11 22:28N 34°47' E 134°39'0 0.0
2018-Feb-11 21:59N 34°47' E 134°39'0 0.0
2018-Feb-11 21:26N 34°47' E 134°39'0 0.0
2018-Feb-11 20:59N 34°47' E 134°39'0 0.0
2018-Feb-11 20:30N 34°47' E 134°39'0 0.0
2018-Feb-11 20:00N 34°47' E 134°39'0 0.0
2018-Feb-11 19:26N 34°47' E 134°39'0 0.0
2018-Feb-11 18:44N 34°47' E 134°39'0 0.0
2018-Feb-11 18:29N 34°47' E 134°39'0 0.0
2018-Feb-11 17:58N 34°47' E 134°39'0 0.0
2018-Feb-11 17:29N 34°47' E 134°39'0 0.0
2018-Feb-11 16:59N 34°47' E 134°39'0 0.0
2018-Feb-11 16:30N 34°47' E 134°39'0 0.0
2018-Feb-11 16:00N 34°47' E 134°39'0 0.0
2018-Feb-11 15:30N 34°47' E 134°39'0 0.0
2018-Feb-11 15:00N 34°47' E 134°39'0 0.0
2018-Feb-11 14:30N 34°47' E 134°39'0 0.0
2018-Feb-11 13:53N 34°47' E 134°39'0 0.0
2018-Feb-11 13:29N 34°47' E 134°39'0 0.0
2018-Feb-11 13:00N 34°47' E 134°39'0 0.0
2018-Feb-11 12:29N 34°47' E 134°39'0 0.0
2018-Feb-11 12:00N 34°47' E 134°39'0 0.0
2018-Feb-11 11:30N 34°47' E 134°39'0 0.0
2018-Feb-11 10:58N 34°47' E 134°39'0 0.0
2018-Feb-11 10:30N 34°47' E 134°39'0 0.0
2018-Feb-11 10:00N 34°47' E 134°39'0 0.0
2018-Feb-11 09:29N 34°47' E 134°39'0 0.0
2018-Feb-11 08:58N 34°47' E 134°39'0 0.0
2018-Feb-11 07:06N 34°47' E 134°39'0 0.0
2018-Feb-11 06:49N 34°47' E 134°39'0 0.0
2018-Feb-11 06:23N 34°47' E 134°39'0 0.0
2018-Feb-11 05:50N 34°47' E 134°39'0 0.0
2018-Feb-11 05:19N 34°47' E 134°39'0 0.0
2018-Feb-11 04:50N 34°47' E 134°39'0 0.0
2018-Feb-11 04:30N 34°47' E 134°39'0 0.0
2018-Feb-11 04:00N 34°47' E 134°39'0 0.0
2018-Feb-11 03:28N 34°47' E 134°39'0 0.0
2018-Feb-11 03:00N 34°47' E 134°39'  
Track history (hours):
 
Tides and Currents Weather Stations Pressure Air Temp Water Temp Dewpoint Dewpoint Depression Visibility Wind Speed Wind Dir Waves Ship Positions

No78 Oyarikimaru

Last reported at 2018-Feb-21 02:35 UTC. Time now 2018-Feb-21 15:44 UTC.
Position N 34°53' E 139°48'.

Length 86 m; draft 3.4 m.

Type: Cargo ship. MMSI: 431500538.

Date/timePositionNaut miles runAvg speedWind from/ knotsBaromVisibWave heightAir tempDewpointWater temp
2018-Feb-21 02:35N 34°53' E 139°48'1011.4
2018-Feb-21 01:43N 35°02' E 139°43'212.0
2018-Feb-21 01:30N 35°04' E 139°44'612.2
2018-Feb-21 00:59N 35°10' E 139°46'612.5
2018-Feb-21 00:30N 35°17' E 139°45'612.7
2018-Feb-21 00:01N 35°22' E 139°42'5 9.8
2018-Feb-20 23:30N 35°25' E 139°48'5 9.6
2018-Feb-20 23:00N 35°22' E 139°53'0 0.0
2018-Feb-20 22:30N 35°22' E 139°53'0 0.0
2018-Feb-20 22:00N 35°22' E 139°53'0 0.0
2018-Feb-20 21:30N 35°22' E 139°53'0 0.0
2018-Feb-20 21:00N 35°22' E 139°53'0 0.0
2018-Feb-20 20:31N 35°22' E 139°53'0 0.0
2018-Feb-20 20:00N 35°22' E 139°53'0 0.0
2018-Feb-20 19:30N 35°22' E 139°53'0 0.0
2018-Feb-20 19:00N 35°22' E 139°53'0 0.0
2018-Feb-20 18:30N 35°22' E 139°53'0 0.0
2018-Feb-20 17:59N 35°22' E 139°53'0 0.0
2018-Feb-20 17:30N 35°22' E 139°53'0 0.0
2018-Feb-20 17:00N 35°22' E 139°53'0 0.0
2018-Feb-20 16:30N 35°22' E 139°53'0 0.0
2018-Feb-20 16:00N 35°22' E 139°53'0 0.0
2018-Feb-20 15:30N 35°22' E 139°53'0 0.0
2018-Feb-20 15:00N 35°22' E 139°53'0 0.0
2018-Feb-20 14:30N 35°22' E 139°53'0 0.0
2018-Feb-20 14:00N 35°22' E 139°53'0 0.0
2018-Feb-20 13:28N 35°22' E 139°53'0 0.0
2018-Feb-20 13:00N 35°22' E 139°53'0 0.0
2018-Feb-20 12:30N 35°22' E 139°53'0 0.0
2018-Feb-20 12:00N 35°22' E 139°53'0 0.0
2018-Feb-20 11:30N 35°22' E 139°53'0 0.0
2018-Feb-20 11:00N 35°22' E 139°53'0 0.0
2018-Feb-20 10:29N 35°22' E 139°53'0 0.0
2018-Feb-20 10:00N 35°22' E 139°53'0 0.0
2018-Feb-20 09:30N 35°22' E 139°53'0 0.0
2018-Feb-20 08:59N 35°22' E 139°53'0 0.0
2018-Feb-20 08:29N 35°22' E 139°53'0 0.0
2018-Feb-20 08:00N 35°22' E 139°53'0 0.0
2018-Feb-20 07:30N 35°22' E 139°53'0 0.0
2018-Feb-20 07:00N 35°22' E 139°53'0 0.0
2018-Feb-20 06:30N 35°22' E 139°53'2 3.9
2018-Feb-20 06:01N 35°23' E 139°51'2 3.3
2018-Feb-20 05:30N 35°24' E 139°49'0 0.0
2018-Feb-20 05:00N 35°24' E 139°49'0 0.0
2018-Feb-20 04:30N 35°24' E 139°49'0 0.9
2018-Feb-20 04:00N 35°24' E 139°49'2 3.4
2018-Feb-20 03:31N 35°24' E 139°47'5 9.5
2018-Feb-20 03:00N 35°19' E 139°44'5 9.6
2018-Feb-20 02:30N 35°15' E 139°47'510.0
2018-Feb-20 02:00N 35°10' E 139°47'510.7
2018-Feb-20 01:30N 35°05' E 139°45'10 9.6
2018-Feb-20 00:26N 34°55' E 139°46'10 8.7
2018-Feb-19 23:15N 34°54' E 139°59'3 9.6
2018-Feb-19 22:57N 34°56' E 140°02'410.1
2018-Feb-19 22:31N 34°58' E 140°06'39310.4
2018-Feb-18 08:38N 41°25' E 141°34'212.1
2018-Feb-18 08:28N 41°27' E 141°35'612.0
2018-Feb-18 08:00N 41°33' E 141°36'612.0
2018-Feb-18 07:30N 41°39' E 141°35'  
2018-Feb-13 12:20N 34°50' E 139°35'511.5
2018-Feb-13 11:54N 34°50' E 139°28'1111.5
2018-Feb-13 10:56N 34°46' E 139°16'713.5
2018-Feb-13 10:26N 34°41' E 139°10'512.0
2018-Feb-13 10:00N 34°39' E 139°04'611.5
2018-Feb-13 09:30N 34°36' E 138°58'612.2
2018-Feb-13 09:00N 34°34' E 138°51'711.1
2018-Feb-13 08:23N 34°33' E 138°43'411.0
2018-Feb-13 07:59N 34°32' E 138°37'610.9
2018-Feb-13 07:24N 34°30' E 138°30'176 9.8
2018-Feb-12 13:25N 33°49' E 135°03'511.4
2018-Feb-12 13:00N 33°53' E 134°60'511.1
2018-Feb-12 12:31N 33°57' E 134°56'611.1
2018-Feb-12 12:00N 34°02' E 134°51'511.1
2018-Feb-12 11:30N 34°06' E 134°47'1111.1
2018-Feb-12 10:34N 34°14' E 134°39'110.8
2018-Feb-12 10:30N 34°15' E 134°39'5 9.7
2018-Feb-12 10:00N 34°19' E 134°38'510.5
2018-Feb-12 09:31N 34°24' E 134°39'510.8
2018-Feb-12 09:00N 34°30' E 134°40'4 8.2
2018-Feb-12 08:30N 34°34' E 134°39'610.8
2018-Feb-12 07:56N 34°40' E 134°39'510.6
2018-Feb-12 07:30N 34°44' E 134°39'2 3.6
2018-Feb-12 07:00N 34°46' E 134°39'0 0.0
2018-Feb-12 06:30N 34°46' E 134°39'0 0.0
2018-Feb-12 05:59N 34°46' E 134°39'0 0.0
2018-Feb-12 05:28N 34°46' E 134°39'0 0.0
2018-Feb-12 05:00N 34°46' E 134°39'0 0.0
2018-Feb-12 04:30N 34°46' E 134°39'0 0.0
2018-Feb-12 04:00N 34°46' E 134°39'0 0.0
2018-Feb-12 03:27N 34°46' E 134°39'0 0.0
2018-Feb-12 03:00N 34°46' E 134°39'0 0.0
2018-Feb-12 02:28N 34°46' E 134°39'0 0.0
2018-Feb-12 02:00N 34°46' E 134°39'0 0.0
2018-Feb-12 01:28N 34°46' E 134°39'0 0.0
2018-Feb-12 00:57N 34°46' E 134°39'0 0.0
2018-Feb-12 00:26N 34°46' E 134°39'0 0.0
2018-Feb-12 00:00N 34°46' E 134°39'0 0.0
2018-Feb-11 23:30N 34°46' E 134°39'0 0.1
2018-Feb-11 22:58N 34°46' E 134°39'1 1.3
2018-Feb-11 22:28N 34°47' E 134°39'0 0.0
2018-Feb-11 21:59N 34°47' E 134°39'0 0.0
2018-Feb-11 21:26N 34°47' E 134°39'0 0.0
2018-Feb-11 20:59N 34°47' E 134°39'0 0.0
2018-Feb-11 20:30N 34°47' E 134°39'0 0.0
2018-Feb-11 20:00N 34°47' E 134°39'0 0.0
2018-Feb-11 19:26N 34°47' E 134°39'0 0.0
2018-Feb-11 18:44N 34°47' E 134°39'0 0.0
2018-Feb-11 18:29N 34°47' E 134°39'0 0.0
2018-Feb-11 17:58N 34°47' E 134°39'0 0.0
2018-Feb-11 17:29N 34°47' E 134°39'0 0.0
2018-Feb-11 16:59N 34°47' E 134°39'0 0.0
2018-Feb-11 16:30N 34°47' E 134°39'0 0.0
2018-Feb-11 16:00N 34°47' E 134°39'0 0.0
2018-Feb-11 15:30N 34°47' E 134°39'0 0.0
2018-Feb-11 15:00N 34°47' E 134°39'0 0.0
2018-Feb-11 14:30N 34°47' E 134°39'0 0.0
2018-Feb-11 13:53N 34°47' E 134°39'0 0.0
2018-Feb-11 13:29N 34°47' E 134°39'0 0.0
2018-Feb-11 13:00N 34°47' E 134°39'0 0.0
2018-Feb-11 12:29N 34°47' E 134°39'0 0.0
2018-Feb-11 12:00N 34°47' E 134°39'0 0.0
2018-Feb-11 11:30N 34°47' E 134°39'0 0.0
2018-Feb-11 10:58N 34°47' E 134°39'0 0.0
2018-Feb-11 10:30N 34°47' E 134°39'0 0.0
2018-Feb-11 10:00N 34°47' E 134°39'0 0.0
2018-Feb-11 09:29N 34°47' E 134°39'0 0.0
2018-Feb-11 08:58N 34°47' E 134°39'0 0.0
2018-Feb-11 07:06N 34°47' E 134°39'0 0.0
2018-Feb-11 06:49N 34°47' E 134°39'0 0.0
2018-Feb-11 06:23N 34°47' E 134°39'0 0.0
2018-Feb-11 05:50N 34°47' E 134°39'0 0.0
2018-Feb-11 05:19N 34°47' E 134°39'0 0.0
2018-Feb-11 04:50N 34°47' E 134°39'0 0.0
2018-Feb-11 04:30N 34°47' E 134°39'0 0.0
2018-Feb-11 04:00N 34°47' E 134°39'0 0.0
2018-Feb-11 03:28N 34°47' E 134°39'0 0.0
2018-Feb-11 03:00N 34°47' E 134°39'  

Dump ship's entire track history